Terminal Aerodrome Forecast
Issued by NWS

Home | Current Version | Previous Version | Text Only | Print | Product List | Glossary On
Versions: 1 2 3 4 5 6 7 8 9 10 11 12 13 14 15
000
FTUS43 KDMX 191120
TAFMCW
TAF
KMCW 191120Z 1912/2012 VRB03KT P6SM SCT250
     FM191600 16011G15KT P6SM SCT250
     FM200100 16007KT P6SM SKC WS020/20030KT=

USA.gov is the U.S. government's official web portal to all federal, state and local government web resources and services.